createdAt,value
2024-05-09T00:00:58.402Z,2240.00
2024-05-09T00:01:58.405Z,2327.00
2024-05-09T00:02:58.456Z,2344.00
2024-05-09T00:03:58.560Z,2226.00
2024-05-09T00:04:58.615Z,2104.00
2024-05-09T00:05:58.587Z,2019.00
2024-05-09T00:06:58.581Z,1959.00
2024-05-09T00:07:58.656Z,1913.00
2024-05-09T00:08:58.664Z,1891.00
2024-05-09T00:09:58.697Z,1883.00
2024-05-09T00:10:58.832Z,1874.00
2024-05-09T00:11:58.909Z,1861.00
2024-05-09T00:12:58.818Z,1859.00
2024-05-09T00:13:58.972Z,1898.00
2024-05-09T00:14:58.945Z,1901.00
2024-05-09T00:15:59.038Z,1931.00
2024-05-09T00:16:59.275Z,1922.00
2024-05-09T00:17:59.354Z,1907.00
2024-05-09T00:18:59.451Z,1890.00
2024-05-09T00:19:59.424Z,1887.00
2024-05-09T00:20:59.482Z,1866.00
2024-05-09T00:21:59.516Z,1841.00
2024-05-09T00:22:59.608Z,1833.00
2024-05-09T00:23:59.676Z,1803.00
2024-05-09T00:24:59.707Z,1761.00
2024-05-09T00:25:59.799Z,1733.00
2024-05-09T00:26:59.797Z,1712.00
2024-05-09T00:27:59.881Z,1692.00
2024-05-09T00:28:59.997Z,1677.00
2024-05-09T00:30:00.024Z,1636.00
2024-05-09T00:31:00.056Z,1608.00
2024-05-09T00:32:00.357Z,1567.00
2024-05-09T00:33:00.348Z,1541.00
2024-05-09T00:34:00.382Z,1514.00
2024-05-09T00:35:00.312Z,1495.00
2024-05-09T00:36:00.329Z,1479.00
2024-05-09T00:37:01.181Z,1471.00
2024-05-09T00:38:00.813Z,1448.00
2024-05-09T00:39:00.577Z,1423.00
2024-05-09T00:40:00.631Z,1403.00
2024-05-09T00:41:00.875Z,1386.00
2024-05-09T00:42:00.820Z,1362.00
2024-05-09T00:43:00.918Z,1352.00
2024-05-09T00:44:01.076Z,1335.00
2024-05-09T00:45:01.103Z,1348.00
2024-05-09T00:46:01.206Z,1324.00
2024-05-09T00:47:01.319Z,1306.00
2024-05-09T00:48:01.658Z,1304.00
2024-05-09T00:49:01.650Z,1304.00
2024-05-09T00:50:01.631Z,1301.00
2024-05-09T00:51:01.710Z,1295.00
2024-05-09T00:52:01.706Z,1298.00
2024-05-09T00:53:01.775Z,1296.00
2024-05-09T00:54:01.793Z,1281.00
2024-05-09T00:55:01.838Z,1273.00
2024-05-09T00:56:01.951Z,1273.00
2024-05-09T00:57:01.991Z,1282.00
2024-05-09T00:58:01.996Z,1286.00
2024-05-09T00:59:02.065Z,1292.00
2024-05-09T01:00:02.109Z,1290.00
2024-05-09T01:01:02.248Z,1296.00
2024-05-09T01:02:02.390Z,1294.00
2024-05-09T01:03:02.603Z,1283.00
2024-05-09T01:04:02.439Z,1277.00
2024-05-09T01:05:02.506Z,1252.00
2024-05-09T01:06:02.486Z,1222.00
2024-05-09T01:07:02.445Z,1207.00
2024-05-09T01:08:02.761Z,1212.00
2024-05-09T01:09:02.553Z,1223.00
2024-05-09T01:10:03.228Z,1227.00
2024-05-09T01:11:02.941Z,1239.00
2024-05-09T01:12:02.976Z,1242.00
2024-05-09T01:13:03.003Z,1248.00
2024-05-09T01:14:03.015Z,1247.00
2024-05-09T01:15:03.090Z,1253.00
2024-05-09T01:16:03.164Z,1254.00
2024-05-09T01:17:03.353Z,1254.00
2024-05-09T01:18:03.546Z,1253.00
2024-05-09T01:19:03.598Z,1231.00
2024-05-09T01:20:06.246Z,1220.00
2024-05-09T01:21:03.780Z,1221.00
2024-05-09T01:22:03.837Z,1224.00
2024-05-09T01:23:04.026Z,1222.00
2024-05-09T01:24:03.965Z,1216.00
2024-05-09T01:25:04.084Z,1224.00
2024-05-09T01:26:04.157Z,1232.00
2024-05-09T01:27:04.150Z,1226.00
2024-05-09T01:28:04.289Z,1210.00
2024-05-09T01:29:04.353Z,1201.00
2024-05-09T01:30:09.128Z,1201.00
2024-05-09T01:31:04.379Z,1201.00
2024-05-09T01:32:04.577Z,1205.00
2024-05-09T01:33:05.225Z,1208.00
2024-05-09T01:34:04.454Z,1216.00
2024-05-09T01:35:04.448Z,1231.00
2024-05-09T01:36:04.487Z,1234.00
2024-05-09T01:37:04.487Z,1226.00
2024-05-09T01:38:04.626Z,1215.00
2024-05-09T01:39:04.524Z,1211.00
2024-05-09T01:40:07.371Z,1192.00
2024-05-09T01:41:04.620Z,1193.00
2024-05-09T01:42:04.596Z,1199.00
2024-05-09T01:43:04.664Z,1202.00
2024-05-09T01:44:04.736Z,1203.00
2024-05-09T01:45:04.670Z,1204.00
2024-05-09T01:46:04.716Z,1201.00
2024-05-09T01:47:04.772Z,1199.00
2024-05-09T01:48:05.076Z,1193.00
2024-05-09T01:49:04.893Z,1193.00
2024-05-09T01:50:08.717Z,1195.00
2024-05-09T01:51:04.980Z,1196.00
2024-05-09T01:52:04.841Z,1197.00
2024-05-09T01:53:04.955Z,1185.00
2024-05-09T01:54:04.882Z,1180.00
2024-05-09T01:55:06.602Z,1168.00
2024-05-09T01:56:04.997Z,1160.00
2024-05-09T01:57:04.965Z,1169.00
2024-05-09T01:58:05.085Z,1145.00
2024-05-09T01:59:05.080Z,1138.00
2024-05-09T02:00:07.742Z,1134.00
2024-05-09T02:01:05.197Z,1134.00
2024-05-09T02:02:05.401Z,1136.00
2024-05-09T02:03:05.393Z,1139.00
2024-05-09T02:04:05.393Z,1148.00
2024-05-09T02:05:05.478Z,1148.00
2024-05-09T02:06:05.497Z,1144.00
2024-05-09T02:07:05.335Z,1125.00
2024-05-09T02:08:05.429Z,1107.00
2024-05-09T02:09:05.375Z,1093.00
2024-05-09T02:10:13.582Z,1082.00
2024-05-09T02:11:05.513Z,1083.00
2024-05-09T02:12:05.706Z,1083.00
2024-05-09T02:13:05.495Z,1062.00
2024-05-09T02:14:05.573Z,1039.00
2024-05-09T02:15:05.552Z,1013.00
2024-05-09T02:16:05.598Z,998.00
2024-05-09T02:17:05.668Z,985.00
2024-05-09T02:18:05.854Z,981.00
2024-05-09T02:19:06.522Z,971.00
2024-05-09T02:20:06.287Z,963.00
2024-05-09T02:21:05.828Z,955.00
2024-05-09T02:22:05.835Z,945.00
2024-05-09T02:23:06.406Z,937.00
2024-05-09T02:24:05.888Z,927.00
2024-05-09T02:25:05.933Z,927.00
2024-05-09T02:26:06.054Z,931.00
2024-05-09T02:27:06.121Z,933.00
2024-05-09T02:28:06.068Z,931.00
2024-05-09T02:29:06.172Z,923.00
2024-05-09T02:30:12.095Z,920.00
2024-05-09T02:31:06.182Z,921.00
2024-05-09T02:32:06.266Z,923.00
2024-05-09T02:33:06.479Z,921.00
2024-05-09T02:34:06.427Z,903.00
2024-05-09T02:35:06.379Z,904.00
2024-05-09T02:36:06.407Z,922.00
2024-05-09T02:37:06.522Z,924.00
2024-05-09T02:38:06.602Z,927.00
2024-05-09T02:39:06.501Z,940.00
2024-05-09T02:40:09.258Z,947.00
2024-05-09T02:41:06.588Z,948.00
2024-05-09T02:42:06.582Z,956.00
2024-05-09T02:43:06.931Z,970.00
2024-05-09T02:44:06.684Z,994.00
2024-05-09T02:45:06.677Z,1021.00
2024-05-09T02:46:06.736Z,1032.00
2024-05-09T02:47:06.954Z,1035.00
2024-05-09T02:48:07.115Z,1031.00
2024-05-09T02:49:06.898Z,1031.00
2024-05-09T02:50:08.224Z,1021.00
2024-05-09T02:51:07.244Z,1026.00
2024-05-09T02:52:07.106Z,1011.00
2024-05-09T02:53:07.412Z,993.00
2024-05-09T02:54:07.240Z,981.00
2024-05-09T02:55:07.302Z,974.00
2024-05-09T02:56:07.517Z,957.00
2024-05-09T02:57:07.547Z,947.00
2024-05-09T02:58:07.617Z,945.00
2024-05-09T02:59:07.742Z,939.00
2024-05-09T03:00:12.258Z,946.00
2024-05-09T03:01:07.868Z,947.00
2024-05-09T03:02:07.958Z,951.00
2024-05-09T03:03:08.967Z,951.00
2024-05-09T03:04:08.159Z,947.00
2024-05-09T03:05:08.077Z,938.00
2024-05-09T03:06:08.079Z,907.00
2024-05-09T03:07:08.143Z,890.00
2024-05-09T03:08:08.372Z,883.00
2024-05-09T03:09:08.218Z,867.00
2024-05-09T03:10:18.048Z,858.00
2024-05-09T03:11:08.467Z,859.00
2024-05-09T03:12:08.486Z,861.00
2024-05-09T03:13:08.607Z,860.00
2024-05-09T03:14:08.457Z,853.00
2024-05-09T03:15:08.491Z,844.00
2024-05-09T03:16:08.543Z,831.00
2024-05-09T03:17:08.729Z,831.00
2024-05-09T03:18:08.827Z,837.00
2024-05-09T03:19:08.817Z,832.00
2024-05-09T03:20:17.292Z,820.00
2024-05-09T03:21:08.992Z,821.00
2024-05-09T03:22:08.836Z,824.00
2024-05-09T03:23:10.031Z,829.00
2024-05-09T03:24:09.104Z,851.00
2024-05-09T03:25:09.226Z,871.00
2024-05-09T03:26:09.402Z,868.00
2024-05-09T03:27:09.478Z,866.00
2024-05-09T03:28:09.566Z,861.00
2024-05-09T03:29:09.765Z,859.00
2024-05-09T03:30:10.047Z,848.00
2024-05-09T03:31:09.891Z,838.00
2024-05-09T03:32:10.105Z,849.00
2024-05-09T03:33:10.415Z,842.00
2024-05-09T03:34:10.174Z,841.00
2024-05-09T03:35:10.268Z,846.00
2024-05-09T03:36:11.408Z,861.00
2024-05-09T03:37:10.324Z,872.00
2024-05-09T03:38:10.498Z,879.00
2024-05-09T03:39:10.452Z,887.00
2024-05-09T03:40:17.568Z,892.00
2024-05-09T03:41:10.563Z,893.00
2024-05-09T03:42:10.582Z,898.00
2024-05-09T03:43:10.591Z,901.00
2024-05-09T03:44:10.696Z,900.00
2024-05-09T03:45:10.678Z,886.00
2024-05-09T03:46:10.726Z,872.00
2024-05-09T03:47:10.812Z,854.00
2024-05-09T03:48:11.407Z,840.00
2024-05-09T03:49:10.984Z,836.00
2024-05-09T03:50:18.280Z,807.00
2024-05-09T03:51:11.187Z,807.00
2024-05-09T03:52:11.118Z,805.00
2024-05-09T03:53:11.396Z,811.00
2024-05-09T03:54:11.266Z,809.00
2024-05-09T03:55:11.332Z,811.00
2024-05-09T03:56:11.395Z,815.00
2024-05-09T03:57:11.414Z,806.00
2024-05-09T03:58:11.508Z,790.00
2024-05-09T03:59:11.561Z,775.00
2024-05-09T04:00:17.896Z,767.00
2024-05-09T04:01:11.728Z,768.00
2024-05-09T04:02:11.823Z,772.00
2024-05-09T04:03:13.143Z,779.00
2024-05-09T04:04:11.810Z,768.00
2024-05-09T04:05:11.847Z,769.00
2024-05-09T04:06:11.849Z,773.00
2024-05-09T04:07:11.896Z,777.00
2024-05-09T04:08:12.084Z,796.00
2024-05-09T04:09:11.985Z,784.00
2024-05-09T04:10:20.692Z,774.00
2024-05-09T04:11:12.193Z,776.00
2024-05-09T04:12:12.342Z,782.00
2024-05-09T04:13:12.232Z,795.00
2024-05-09T04:14:12.264Z,803.00
2024-05-09T04:15:13.586Z,816.00
2024-05-09T04:16:12.318Z,841.00
2024-05-09T04:17:12.500Z,838.00
2024-05-09T04:18:12.749Z,842.00
2024-05-09T04:19:12.687Z,857.00
2024-05-09T04:20:21.364Z,861.00
2024-05-09T04:21:12.696Z,862.00
2024-05-09T04:22:12.687Z,864.00
2024-05-09T04:23:13.553Z,842.00
2024-05-09T04:24:12.767Z,850.00
2024-05-09T04:25:12.825Z,828.00
2024-05-09T04:26:12.982Z,818.00
2024-05-09T04:27:12.947Z,821.00
2024-05-09T04:28:13.055Z,815.00
2024-05-09T04:29:13.162Z,813.00
2024-05-09T04:30:21.598Z,811.00
2024-05-09T04:31:13.321Z,812.00
2024-05-09T04:32:13.440Z,818.00
2024-05-09T04:33:14.626Z,828.00
2024-05-09T04:34:13.517Z,813.00
2024-05-09T04:35:13.601Z,821.00
2024-05-09T04:36:13.532Z,834.00
2024-05-09T04:37:13.605Z,850.00
2024-05-09T04:38:14.505Z,877.00
2024-05-09T04:39:13.768Z,895.00
2024-05-09T04:40:24.142Z,884.00
2024-05-09T04:41:13.959Z,884.00
2024-05-09T04:42:13.970Z,887.00
2024-05-09T04:43:14.195Z,888.00
2024-05-09T04:44:14.167Z,891.00
2024-05-09T04:45:14.123Z,872.00
2024-05-09T04:46:14.213Z,870.00
2024-05-09T04:47:14.314Z,876.00
2024-05-09T04:48:14.588Z,889.00
2024-05-09T04:49:14.562Z,902.00
2024-05-09T04:50:21.194Z,892.00
2024-05-09T04:51:14.462Z,893.00
2024-05-09T04:52:14.449Z,899.00
2024-05-09T04:53:14.628Z,905.00
2024-05-09T04:54:26.063Z,911.00
2024-05-09T04:55:14.580Z,893.00
2024-05-09T04:56:14.603Z,896.00
2024-05-09T04:57:14.650Z,882.00
2024-05-09T04:58:14.706Z,843.00
2024-05-09T04:59:14.798Z,813.00
2024-05-09T05:00:21.723Z,782.00
2024-05-09T05:01:14.979Z,783.00
2024-05-09T05:02:15.008Z,775.00
2024-05-09T05:03:16.285Z,788.00
2024-05-09T05:04:15.245Z,783.00
2024-05-09T05:05:15.533Z,784.00
2024-05-09T05:06:15.159Z,784.00
2024-05-09T05:07:15.202Z,782.00
2024-05-09T05:08:15.830Z,767.00
2024-05-09T05:09:23.886Z,600.00
2024-05-09T05:10:33.074Z,600.00
2024-05-09T05:11:25.004Z,600.00
2024-05-09T05:12:25.132Z,600.00
2024-05-09T05:13:25.354Z,600.00
2024-05-09T05:14:24.998Z,600.00
2024-05-09T05:15:24.997Z,600.00
2024-05-09T05:16:25.027Z,606.00
2024-05-09T05:17:25.129Z,600.00
2024-05-09T05:18:25.139Z,600.00
2024-05-09T05:19:25.219Z,603.00
2024-05-09T05:20:32.570Z,602.00
2024-05-09T05:21:25.186Z,603.00
2024-05-09T05:22:25.124Z,604.00
2024-05-09T05:23:25.209Z,604.00
2024-05-09T05:24:25.172Z,595.00
2024-05-09T05:25:25.206Z,585.00
2024-05-09T05:26:25.279Z,601.00
2024-05-09T05:27:25.267Z,604.00
2024-05-09T05:28:25.319Z,604.00
2024-05-09T05:29:25.369Z,606.00
2024-05-09T05:30:29.235Z,605.00
2024-05-09T05:31:25.363Z,606.00
2024-05-09T05:32:25.503Z,608.00
2024-05-09T05:33:25.442Z,611.00
2024-05-09T05:34:25.393Z,615.00
2024-05-09T05:35:25.554Z,622.00
2024-05-09T05:36:25.391Z,620.00
2024-05-09T05:37:25.415Z,622.00
2024-05-09T05:38:28.190Z,606.00
2024-05-09T05:39:25.423Z,607.00
2024-05-09T05:40:33.196Z,608.00
2024-05-09T05:41:25.532Z,607.00
2024-05-09T05:42:25.451Z,610.00
2024-05-09T05:43:25.464Z,615.00
2024-05-09T05:44:25.540Z,625.00
2024-05-09T05:45:25.506Z,626.00
2024-05-09T05:46:25.519Z,626.00
2024-05-09T05:47:25.704Z,626.00
2024-05-09T05:48:25.685Z,621.00
2024-05-09T05:49:25.691Z,619.00
2024-05-09T05:50:32.484Z,615.00
2024-05-09T05:51:25.626Z,615.00
2024-05-09T05:52:25.619Z,618.00
2024-05-09T05:53:25.645Z,620.00
2024-05-09T05:54:25.632Z,624.00
2024-05-09T05:55:25.638Z,628.00
2024-05-09T05:56:25.683Z,636.00
2024-05-09T05:57:25.651Z,644.00
2024-05-09T05:58:25.652Z,650.00
2024-05-09T05:59:25.691Z,651.00
2024-05-09T06:00:30.290Z,654.00
2024-05-09T06:01:25.758Z,654.00
2024-05-09T06:02:25.802Z,657.00
2024-05-09T06:03:25.743Z,661.00
2024-05-09T06:04:25.751Z,673.00
2024-05-09T06:05:27.666Z,699.00
2024-05-09T06:06:25.730Z,655.00
2024-05-09T06:07:25.745Z,659.00
2024-05-09T06:08:28.853Z,665.00
2024-05-09T06:09:25.801Z,655.00
2024-05-09T06:10:30.485Z,659.00
2024-05-09T06:11:26.074Z,655.00
2024-05-09T06:12:26.037Z,660.00
2024-05-09T06:13:25.901Z,670.00
2024-05-09T06:14:25.944Z,701.00
2024-05-09T06:15:25.932Z,737.00
2024-05-09T06:16:25.943Z,745.00
2024-05-09T06:17:26.176Z,746.00
2024-05-09T06:18:26.307Z,748.00
2024-05-09T06:19:26.340Z,757.00
2024-05-09T06:20:34.368Z,736.00
2024-05-09T06:21:26.074Z,736.00
2024-05-09T06:22:25.997Z,737.00
2024-05-09T06:23:26.070Z,738.00
2024-05-09T06:24:26.005Z,742.00
2024-05-09T06:25:25.999Z,750.00
2024-05-09T06:26:26.061Z,768.00
2024-05-09T06:27:25.959Z,786.00
2024-05-09T06:28:25.956Z,814.00
2024-05-09T06:29:26.139Z,827.00
2024-05-09T06:30:34.790Z,846.00
2024-05-09T06:31:25.923Z,847.00
2024-05-09T06:32:26.062Z,853.00
2024-05-09T06:33:26.233Z,861.00
2024-05-09T06:34:26.068Z,878.00
2024-05-09T06:35:25.900Z,880.00
2024-05-09T06:36:25.851Z,880.00
2024-05-09T06:37:25.855Z,870.00
2024-05-09T06:38:25.879Z,882.00
2024-05-09T06:39:25.814Z,886.00
2024-05-09T06:40:34.283Z,873.00
2024-05-09T06:41:25.826Z,873.00
2024-05-09T06:42:25.779Z,877.00
2024-05-09T06:43:25.788Z,881.00
2024-05-09T06:44:25.797Z,888.00
2024-05-09T06:45:25.759Z,908.00
2024-05-09T06:46:25.731Z,914.00
2024-05-09T06:47:25.826Z,898.00
2024-05-09T06:48:25.954Z,863.00
2024-05-09T06:49:25.827Z,842.00
2024-05-09T06:50:28.391Z,824.00
2024-05-09T06:51:25.761Z,826.00
2024-05-09T06:52:25.670Z,829.00
2024-05-09T06:53:25.704Z,826.00
2024-05-09T06:54:25.663Z,817.00
2024-05-09T06:55:25.632Z,775.00
2024-05-09T06:56:25.630Z,757.00
2024-05-09T06:57:25.581Z,767.00
2024-05-09T06:58:25.575Z,778.00
2024-05-09T06:59:25.744Z,784.00
2024-05-09T07:00:34.459Z,810.00
2024-05-09T07:01:25.511Z,812.00
2024-05-09T07:02:25.599Z,824.00
2024-05-09T07:03:25.658Z,833.00
2024-05-09T07:04:25.518Z,857.00
2024-05-09T07:05:25.731Z,886.00
2024-05-09T07:06:25.406Z,895.00
2024-05-09T07:07:25.410Z,904.00
2024-05-09T07:08:25.457Z,903.00
2024-05-09T07:09:25.391Z,881.00
2024-05-09T07:10:32.411Z,852.00
2024-05-09T07:11:25.526Z,852.00
2024-05-09T07:12:25.536Z,852.00
2024-05-09T07:13:25.425Z,825.00
2024-05-09T07:14:25.454Z,799.00
2024-05-09T07:15:25.449Z,780.00
2024-05-09T07:16:25.478Z,765.00
2024-05-09T07:17:25.612Z,784.00
2024-05-09T07:18:25.599Z,797.00
2024-05-09T07:19:25.587Z,778.00
2024-05-09T07:20:33.769Z,793.00
2024-05-09T07:21:25.526Z,795.00
2024-05-09T07:22:25.471Z,802.00
2024-05-09T07:23:25.507Z,810.00
2024-05-09T07:24:25.456Z,800.00
2024-05-09T07:25:25.461Z,799.00
2024-05-09T07:26:25.503Z,783.00
2024-05-09T07:27:25.461Z,771.00
2024-05-09T07:28:25.449Z,773.00
2024-05-09T07:29:25.509Z,778.00
2024-05-09T07:30:32.832Z,786.00
2024-05-09T07:31:25.414Z,786.00
2024-05-09T07:32:25.492Z,780.00
2024-05-09T07:33:25.518Z,785.00
2024-05-09T07:34:25.564Z,759.00
2024-05-09T07:35:25.912Z,738.00
2024-05-09T07:36:25.260Z,751.00
2024-05-09T07:37:25.205Z,729.00
2024-05-09T07:38:25.215Z,702.00
2024-05-09T07:39:25.154Z,737.00
2024-05-09T07:40:32.943Z,732.00
2024-05-09T07:41:25.207Z,734.00
2024-05-09T07:42:25.056Z,738.00
2024-05-09T07:43:25.078Z,731.00
2024-05-09T07:44:25.095Z,731.00
2024-05-09T07:45:43.024Z,700.00
2024-05-09T07:47:20.736Z,715.00
2024-05-09T07:48:56.880Z,729.00
2024-05-09T07:53:30.562Z,727.00
2024-05-09T07:54:23.885Z,732.00
2024-05-09T07:55:25.077Z,726.00
2024-05-09T07:56:25.876Z,730.00
2024-05-09T07:57:24.886Z,707.00
2024-05-09T07:58:24.792Z,666.00
2024-05-09T07:59:24.779Z,659.00
2024-05-09T08:00:31.020Z,651.00
2024-05-09T08:01:24.859Z,651.00
2024-05-09T08:02:24.899Z,642.00
2024-05-09T08:03:24.769Z,635.00
2024-05-09T08:04:26.679Z,639.00
2024-05-09T08:05:24.752Z,635.00
2024-05-09T08:06:24.658Z,605.00
2024-05-09T08:07:24.589Z,604.00
2024-05-09T08:08:24.520Z,595.00
2024-05-09T08:09:24.483Z,576.00
2024-05-09T08:10:27.538Z,603.00
2024-05-09T08:11:24.739Z,604.00
2024-05-09T08:12:24.637Z,604.00
2024-05-09T08:13:24.726Z,606.00
2024-05-09T08:14:24.738Z,613.00
2024-05-09T08:15:24.651Z,629.00
2024-05-09T08:16:24.847Z,636.00
2024-05-09T08:17:24.911Z,645.00
2024-05-09T08:18:24.975Z,651.00
2024-05-09T08:19:24.829Z,650.00
2024-05-09T08:20:31.055Z,640.00
2024-05-09T08:21:24.802Z,631.00
2024-05-09T08:22:24.787Z,628.00
2024-05-09T08:23:24.775Z,638.00
2024-05-09T08:24:24.735Z,640.00
2024-05-09T08:25:24.804Z,652.00
2024-05-09T08:26:24.698Z,689.00
2024-05-09T08:27:24.665Z,713.00
2024-05-09T08:28:24.739Z,656.00
2024-05-09T08:29:24.627Z,634.00
2024-05-09T08:30:32.527Z,610.00
2024-05-09T08:31:24.679Z,610.00
2024-05-09T08:32:24.595Z,594.00
2024-05-09T08:33:24.650Z,591.00
2024-05-09T08:34:24.586Z,593.00
2024-05-09T08:35:24.464Z,607.00
2024-05-09T08:36:24.754Z,622.00
2024-05-09T08:37:27.847Z,648.00
2024-05-09T08:38:24.322Z,648.00
2024-05-09T08:39:24.275Z,652.00
2024-05-09T08:40:31.042Z,622.00
2024-05-09T08:41:24.168Z,589.00
2024-05-09T08:42:24.116Z,553.00
2024-05-09T08:43:24.152Z,521.00
2024-05-09T08:44:24.033Z,508.00
2024-05-09T08:45:24.046Z,509.00
2024-05-09T08:46:24.040Z,549.00
2024-05-09T08:47:24.034Z,603.00
2024-05-09T08:48:24.137Z,614.00
2024-05-09T08:49:23.953Z,602.00
2024-05-09T08:50:31.855Z,604.00
2024-05-09T08:51:23.790Z,605.00
2024-05-09T08:52:23.732Z,612.00
2024-05-09T08:53:23.715Z,622.00
2024-05-09T08:54:23.692Z,638.00
2024-05-09T08:55:23.665Z,669.00
2024-05-09T08:56:23.652Z,693.00
2024-05-09T08:57:23.641Z,659.00
2024-05-09T08:58:23.623Z,648.00
2024-05-09T08:59:23.581Z,636.00
2024-05-09T09:00:33.691Z,634.00
2024-05-09T09:01:23.645Z,634.00
2024-05-09T09:02:23.571Z,635.00
2024-05-09T09:03:23.464Z,636.00
2024-05-09T09:04:23.543Z,636.00
2024-05-09T09:05:23.467Z,619.00
2024-05-09T09:06:23.316Z,621.00
2024-05-09T09:07:23.395Z,619.00
2024-05-09T09:08:23.284Z,624.00
2024-05-09T09:09:23.270Z,637.00
2024-05-09T09:10:29.751Z,641.00
2024-05-09T09:11:23.244Z,642.00
2024-05-09T09:12:23.214Z,642.00
2024-05-09T09:13:23.236Z,619.00
2024-05-09T09:14:23.126Z,596.00
2024-05-09T09:15:23.196Z,569.00
2024-05-09T09:16:23.375Z,598.00
2024-05-09T09:17:23.130Z,600.00
2024-05-09T09:18:23.108Z,600.00
2024-05-09T09:19:23.253Z,601.00
2024-05-09T09:20:28.711Z,607.00
2024-05-09T09:21:22.896Z,607.00
2024-05-09T09:22:22.889Z,608.00
2024-05-09T09:23:22.855Z,607.00
2024-05-09T09:24:22.744Z,591.00
2024-05-09T09:25:22.703Z,593.00
2024-05-09T09:26:22.622Z,610.00
2024-05-09T09:27:22.629Z,600.00
2024-05-09T09:28:22.579Z,596.00
2024-05-09T09:29:22.522Z,590.00
2024-05-09T09:30:34.436Z,599.00
2024-05-09T09:31:22.495Z,600.00
2024-05-09T09:32:22.430Z,606.00
2024-05-09T09:33:22.461Z,615.00
2024-05-09T09:34:22.444Z,640.00
2024-05-09T09:35:22.299Z,671.00
2024-05-09T09:36:22.237Z,648.00
2024-05-09T09:37:22.207Z,641.00
2024-05-09T09:38:22.172Z,663.00
2024-05-09T09:39:22.147Z,689.00
2024-05-09T09:40:22.424Z,702.00
2024-05-09T09:41:22.040Z,704.00
2024-05-09T09:42:22.007Z,704.00
2024-05-09T09:43:22.589Z,701.00
2024-05-09T09:44:21.959Z,707.00
2024-05-09T09:45:21.951Z,743.00
2024-05-09T09:46:21.943Z,781.00
2024-05-09T09:47:21.982Z,790.00
2024-05-09T09:48:22.372Z,795.00
2024-05-09T09:49:21.935Z,813.00
2024-05-09T09:50:27.728Z,765.00
2024-05-09T09:51:21.752Z,752.00
2024-05-09T09:52:21.922Z,719.00
2024-05-09T09:53:21.717Z,697.00
2024-05-09T09:54:21.637Z,671.00
2024-05-09T09:55:21.697Z,648.00
2024-05-09T09:56:21.589Z,683.00
2024-05-09T09:57:21.527Z,693.00
2024-05-09T09:58:21.646Z,677.00
2024-05-09T09:59:21.517Z,684.00
2024-05-09T10:00:27.112Z,711.00
2024-05-09T10:01:21.597Z,712.00
2024-05-09T10:02:21.675Z,714.00
2024-05-09T10:03:21.651Z,728.00
2024-05-09T10:04:21.500Z,754.00
2024-05-09T10:05:21.563Z,743.00
2024-05-09T10:06:21.334Z,664.00
2024-05-09T10:07:21.385Z,644.00
2024-05-09T10:08:21.268Z,619.00
2024-05-09T10:09:21.220Z,605.00
2024-05-09T10:10:27.349Z,600.00
2024-05-09T10:11:21.247Z,600.00
2024-05-09T10:12:21.187Z,601.00
2024-05-09T10:13:21.349Z,603.00
2024-05-09T10:14:21.042Z,610.00
2024-05-09T10:15:21.090Z,633.00
2024-05-09T10:16:21.176Z,630.00
2024-05-09T10:17:21.010Z,621.00
2024-05-09T10:18:21.041Z,622.00
2024-05-09T10:19:20.976Z,626.00
2024-05-09T10:20:24.768Z,652.00
2024-05-09T10:21:20.812Z,652.00
2024-05-09T10:22:20.751Z,653.00
2024-05-09T10:23:20.690Z,660.00
2024-05-09T10:24:20.650Z,687.00
2024-05-09T10:25:20.803Z,671.00
2024-05-09T10:26:20.582Z,705.00
2024-05-09T10:27:20.544Z,716.00
2024-05-09T10:28:20.523Z,658.00
2024-05-09T10:29:20.443Z,614.00
2024-05-09T10:30:26.127Z,600.00
2024-05-09T10:31:20.463Z,575.00
2024-05-09T10:32:20.371Z,537.00
2024-05-09T10:33:20.429Z,519.00
2024-05-09T10:34:20.704Z,490.00
2024-05-09T10:35:20.246Z,490.00
2024-05-09T10:36:20.161Z,517.00
2024-05-09T10:37:20.272Z,543.00
2024-05-09T10:38:20.091Z,583.00
2024-05-09T10:39:21.302Z,618.00
2024-05-09T10:40:26.037Z,637.00
2024-05-09T10:41:19.974Z,637.00
2024-05-09T10:42:19.953Z,639.00
2024-05-09T10:43:20.192Z,643.00
2024-05-09T10:44:19.881Z,653.00
2024-05-09T10:45:19.925Z,643.00
2024-05-09T10:46:20.304Z,635.00
2024-05-09T10:47:19.840Z,643.00
2024-05-09T10:48:19.828Z,656.00
2024-05-09T10:49:19.772Z,661.00
2024-05-09T10:50:25.723Z,678.00
2024-05-09T10:51:20.757Z,680.00
2024-05-09T10:52:19.730Z,681.00
2024-05-09T10:53:19.567Z,691.00
2024-05-09T10:54:19.501Z,708.00
2024-05-09T10:55:19.564Z,742.00
2024-05-09T10:56:19.370Z,791.00
2024-05-09T10:57:19.316Z,755.00
2024-05-09T10:58:19.343Z,763.00
2024-05-09T10:59:19.240Z,739.00
2024-05-09T11:00:27.453Z,700.00
2024-05-09T11:01:19.206Z,701.00
2024-05-09T11:02:19.239Z,702.00
2024-05-09T11:03:19.165Z,704.00
2024-05-09T11:04:19.178Z,737.00
2024-05-09T11:05:19.228Z,762.00
2024-05-09T11:06:18.899Z,748.00
2024-05-09T11:07:18.938Z,776.00
2024-05-09T11:08:18.805Z,788.00
2024-05-09T11:09:18.749Z,813.00
2024-05-09T11:10:27.114Z,818.00
2024-05-09T11:11:18.692Z,820.00
2024-05-09T11:12:20.603Z,822.00
2024-05-09T11:13:18.581Z,818.00
2024-05-09T11:14:18.491Z,823.00
2024-05-09T11:15:18.589Z,830.00
2024-05-09T11:16:18.494Z,825.00
2024-05-09T11:17:18.387Z,835.00
2024-05-09T11:18:19.794Z,802.00
2024-05-09T11:19:18.345Z,803.00
2024-05-09T11:20:26.761Z,808.00
2024-05-09T11:21:18.144Z,807.00
2024-05-09T11:22:18.115Z,828.00
2024-05-09T11:23:18.055Z,879.00
2024-05-09T11:24:18.007Z,969.00
2024-05-09T11:25:18.072Z,1044.00
2024-05-09T11:26:17.894Z,1039.00
2024-05-09T11:27:17.856Z,1016.00
2024-05-09T11:28:17.944Z,970.00
2024-05-09T11:29:19.613Z,978.00
2024-05-09T11:30:26.584Z,978.00
2024-05-09T11:31:18.044Z,979.00
2024-05-09T11:32:17.702Z,979.00
2024-05-09T11:33:17.681Z,972.00
2024-05-09T11:34:17.633Z,973.00
2024-05-09T11:35:17.638Z,897.00
2024-05-09T11:36:17.522Z,875.00
2024-05-09T11:37:17.727Z,838.00
2024-05-09T11:38:17.462Z,807.00
2024-05-09T11:39:17.427Z,794.00
2024-05-09T11:40:25.171Z,781.00
2024-05-09T11:41:17.400Z,782.00
2024-05-09T11:42:17.359Z,785.00
2024-05-09T11:43:17.442Z,791.00
2024-05-09T11:44:17.264Z,811.00
2024-05-09T11:45:17.296Z,841.00
2024-05-09T11:46:17.402Z,873.00
2024-05-09T11:47:17.203Z,884.00
2024-05-09T11:48:17.188Z,844.00
2024-05-09T11:49:17.223Z,802.00
2024-05-09T11:50:26.732Z,712.00
2024-05-09T11:51:16.973Z,712.00
2024-05-09T11:52:17.141Z,716.00
2024-05-09T11:53:16.906Z,713.00
2024-05-09T11:54:16.872Z,692.00
2024-05-09T11:55:17.033Z,693.00
2024-05-09T11:56:16.815Z,711.00
2024-05-09T11:57:16.799Z,703.00
2024-05-09T11:58:17.000Z,727.00
2024-05-09T11:59:16.713Z,689.00
2024-05-09T12:00:24.610Z,662.00
2024-05-09T12:01:16.817Z,643.00
2024-05-09T12:02:17.033Z,621.00
2024-05-09T12:03:16.725Z,603.00
2024-05-09T12:04:16.916Z,600.00
2024-05-09T12:05:16.848Z,611.00
2024-05-09T12:06:16.727Z,621.00
2024-05-09T12:07:16.616Z,641.00
2024-05-09T12:08:16.604Z,680.00
2024-05-09T12:09:16.500Z,731.00
2024-05-09T12:10:19.872Z,755.00
2024-05-09T12:11:16.774Z,756.00
2024-05-09T12:12:16.417Z,755.00
2024-05-09T12:13:16.418Z,735.00
2024-05-09T12:14:16.219Z,721.00
2024-05-09T12:15:16.227Z,713.00
2024-05-09T12:16:16.407Z,713.00
2024-05-09T12:17:16.206Z,713.00
2024-05-09T12:18:16.187Z,724.00
2024-05-09T12:19:16.106Z,711.00
2024-05-09T12:20:21.582Z,692.00
2024-05-09T12:21:16.028Z,692.00
2024-05-09T12:22:16.061Z,697.00
2024-05-09T12:23:15.981Z,701.00
2024-05-09T12:24:18.242Z,688.00
2024-05-09T12:25:16.182Z,663.00
2024-05-09T12:26:15.960Z,640.00
2024-05-09T12:27:15.884Z,606.00
2024-05-09T12:28:16.025Z,599.00
2024-05-09T12:29:15.853Z,594.00